createdAt,value
2022-12-12T00:02:11.824Z,28.57
2022-12-12T00:04:38.557Z,28.67
2022-12-12T00:07:05.580Z,30.37
2022-12-12T00:09:33.006Z,31.90
2022-12-12T00:11:59.702Z,31.23
2022-12-12T00:14:26.388Z,26.50
2022-12-12T00:16:53.090Z,31.83
2022-12-12T00:19:19.794Z,32.97
2022-12-12T00:21:47.127Z,31.03
2022-12-12T00:24:13.798Z,27.20
2022-12-12T00:26:40.488Z,37.37
2022-12-12T00:29:07.555Z,33.20
2022-12-12T00:31:34.224Z,35.77
2022-12-12T00:34:00.988Z,34.80
2022-12-12T00:36:30.941Z,34.50
2022-12-12T00:38:58.336Z,41.63
2022-12-12T00:41:25.115Z,38.87
2022-12-12T00:43:51.805Z,39.50
2022-12-12T00:46:21.546Z,35.77
2022-12-12T00:48:48.368Z,33.30
2022-12-12T00:51:21.184Z,34.97
2022-12-12T00:53:48.713Z,37.47
2022-12-12T00:56:17.222Z,37.93
2022-12-12T00:58:43.944Z,36.40
2022-12-12T01:01:13.742Z,33.97
2022-12-12T01:03:42.232Z,37.10
2022-12-12T01:06:10.321Z,35.17
2022-12-12T01:08:38.032Z,38.60
2022-12-12T01:11:05.952Z,37.17
2022-12-12T01:13:32.896Z,36.60
2022-12-12T01:15:59.765Z,32.67
2022-12-12T01:18:26.712Z,39.43
2022-12-12T01:20:53.821Z,33.20
2022-12-12T01:23:20.490Z,32.33
2022-12-12T01:25:47.205Z,35.73
2022-12-12T01:28:14.581Z,34.27
2022-12-12T01:30:41.313Z,40.50
2022-12-12T01:33:07.992Z,38.73
2022-12-12T01:35:35.027Z,34.30
2022-12-12T01:38:01.797Z,35.23
2022-12-12T01:40:30.699Z,38.87
2022-12-12T01:42:59.428Z,38.57
2022-12-12T01:45:54.170Z,36.87
2022-12-12T01:48:23.516Z,34.97
2022-12-12T01:50:51.043Z,38.03
2022-12-12T01:53:19.361Z,35.93
2022-12-12T01:55:48.030Z,34.57
2022-12-12T01:58:16.108Z,36.33
2022-12-12T02:00:43.377Z,32.63
2022-12-12T02:03:10.297Z,34.10
2022-12-12T02:05:44.964Z,36.10
2022-12-12T02:08:13.068Z,33.47
2022-12-12T02:10:39.819Z,34.17
2022-12-12T02:13:11.028Z,31.73
2022-12-12T02:16:04.196Z,30.73
2022-12-12T02:18:57.054Z,35.70
2022-12-12T02:21:41.621Z,33.33
2022-12-12T02:24:44.735Z,35.03
2022-12-12T02:27:23.272Z,36.33
2022-12-12T02:30:11.000Z,38.40
2022-12-12T02:32:55.951Z,32.23
2022-12-12T02:35:31.010Z,34.13
2022-12-12T02:38:15.801Z,33.80
2022-12-12T02:41:07.632Z,29.03
2022-12-12T02:43:44.822Z,28.53
2022-12-12T02:46:24.266Z,37.57
2022-12-12T02:48:54.312Z,31.47
2022-12-12T02:51:22.458Z,35.67
2022-12-12T02:53:49.157Z,35.17
2022-12-12T02:56:54.981Z,31.40
2022-12-12T02:59:35.305Z,27.30
2022-12-12T03:02:26.688Z,27.97
2022-12-12T03:05:43.189Z,26.53
2022-12-12T03:08:31.702Z,30.40
2022-12-12T03:11:13.443Z,29.77
2022-12-12T03:14:05.249Z,27.97
2022-12-12T03:17:00.993Z,31.03
2022-12-12T03:19:36.544Z,21.27
2022-12-12T03:22:26.227Z,24.73
2022-12-12T03:25:34.477Z,22.57
2022-12-12T03:28:15.013Z,21.10
2022-12-12T03:30:46.770Z,23.57
2022-12-12T03:33:22.092Z,22.80
2022-12-12T03:35:55.521Z,22.83
2022-12-12T03:38:28.858Z,20.70
2022-12-12T03:41:01.295Z,19.80
2022-12-12T03:43:35.475Z,21.73
2022-12-12T03:46:20.761Z,19.97
2022-12-12T03:48:55.616Z,20.70
2022-12-12T03:51:27.722Z,20.30
2022-12-12T03:54:08.741Z,16.53
2022-12-12T03:56:47.432Z,19.03
2022-12-12T03:59:36.621Z,23.33
2022-12-12T04:02:21.693Z,24.23
2022-12-12T04:05:00.281Z,24.33
2022-12-12T04:07:34.359Z,26.07
2022-12-12T04:10:19.692Z,23.43
2022-12-12T04:13:15.872Z,22.47
2022-12-12T04:15:46.808Z,24.63
2022-12-12T04:18:13.434Z,18.33
2022-12-12T04:21:09.900Z,25.03
2022-12-12T04:23:47.535Z,20.33
2022-12-12T04:26:39.232Z,22.13
2022-12-12T04:29:16.924Z,21.87
2022-12-12T04:32:06.953Z,21.57
2022-12-12T04:34:42.638Z,20.70
2022-12-12T04:37:13.735Z,21.27
2022-12-12T04:39:43.031Z,21.93
2022-12-12T04:42:14.649Z,20.77
2022-12-12T04:44:44.746Z,19.43
2022-12-12T04:47:14.027Z,21.10
2022-12-12T04:49:45.001Z,21.73
2022-12-12T04:52:15.270Z,18.53
2022-12-12T04:54:51.033Z,23.67
2022-12-12T04:57:25.587Z,22.53
2022-12-12T04:59:52.401Z,21.53
2022-12-12T05:02:39.846Z,21.67
2022-12-12T05:05:12.478Z,24.40
2022-12-12T05:07:40.670Z,20.77
2022-12-12T05:10:11.929Z,22.73
2022-12-12T05:12:57.275Z,22.80
2022-12-12T05:15:24.192Z,21.97
2022-12-12T05:18:03.140Z,19.47
2022-12-12T05:20:29.872Z,18.97
2022-12-12T05:22:56.508Z,20.03
2022-12-12T05:25:23.221Z,23.63
2022-12-12T05:27:49.855Z,25.00
2022-12-12T05:30:16.644Z,20.23
2022-12-12T05:32:43.289Z,20.97
2022-12-12T05:35:11.286Z,22.67
2022-12-12T05:37:38.195Z,20.43
2022-12-12T05:40:06.959Z,19.63
2022-12-12T05:42:33.595Z,17.67
2022-12-12T05:45:00.973Z,15.77
2022-12-12T05:47:27.613Z,18.47
2022-12-12T05:49:54.296Z,18.87
2022-12-12T05:52:21.288Z,17.47
2022-12-12T05:54:47.947Z,16.63
2022-12-12T05:57:14.679Z,16.87
2022-12-12T05:59:41.358Z,17.10
2022-12-12T06:02:08.010Z,17.53
2022-12-12T06:04:34.809Z,20.97
2022-12-12T06:07:01.520Z,22.47
2022-12-12T06:09:28.269Z,20.20
2022-12-12T06:11:54.891Z,27.03
2022-12-12T06:14:21.667Z,23.87
2022-12-12T06:16:48.318Z,22.27
2022-12-12T06:19:15.233Z,21.87
2022-12-12T06:21:41.868Z,21.63
2022-12-12T06:24:08.636Z,20.80
2022-12-12T06:26:35.313Z,20.47
2022-12-12T06:29:02.103Z,18.77
2022-12-12T06:31:28.784Z,21.23
2022-12-12T06:33:55.499Z,17.23
2022-12-12T06:36:24.343Z,18.03
2022-12-12T06:38:51.951Z,18.13
2022-12-12T06:41:19.326Z,20.97
2022-12-12T06:43:46.242Z,19.17
2022-12-12T06:46:16.742Z,19.87
2022-12-12T06:48:44.359Z,16.23
2022-12-12T06:51:14.650Z,18.03
2022-12-12T06:53:41.836Z,16.03
2022-12-12T06:56:17.731Z,19.73
2022-12-12T06:58:44.777Z,15.80
2022-12-12T07:01:13.360Z,13.83
2022-12-12T07:03:40.115Z,14.47
2022-12-12T07:06:07.434Z,15.90
2022-12-12T07:08:35.528Z,16.00
2022-12-12T07:11:15.428Z,16.80
2022-12-12T07:13:42.767Z,17.47
2022-12-12T07:16:10.356Z,15.10
2022-12-12T07:18:37.128Z,16.17
2022-12-12T07:21:05.567Z,16.73
2022-12-12T07:23:32.782Z,16.70
2022-12-12T07:26:02.618Z,17.07
2022-12-12T07:28:29.270Z,17.10
2022-12-12T07:30:55.950Z,14.63
2022-12-12T07:33:22.654Z,20.63
2022-12-12T07:35:49.252Z,17.67
2022-12-12T07:38:15.927Z,16.43
2022-12-12T07:40:42.504Z,19.00
2022-12-12T07:43:09.197Z,18.60
2022-12-12T07:45:35.850Z,21.77
2022-12-12T07:48:02.583Z,19.70
2022-12-12T07:50:29.297Z,18.10
2022-12-12T07:52:56.005Z,20.20
2022-12-12T07:55:22.673Z,19.07
2022-12-12T07:57:49.988Z,19.63
2022-12-12T08:00:17.375Z,18.27
2022-12-12T08:02:44.074Z,20.60
2022-12-12T08:05:10.945Z,19.53
2022-12-12T08:07:37.771Z,20.73
2022-12-12T08:10:05.692Z,17.30
2022-12-12T08:12:32.920Z,19.27
2022-12-12T08:14:59.579Z,19.90
2022-12-12T08:17:26.231Z,18.70
2022-12-12T08:19:52.914Z,21.20
2022-12-12T08:22:20.046Z,18.90
2022-12-12T08:24:48.940Z,18.33
2022-12-12T08:27:16.129Z,19.40
2022-12-12T08:29:43.565Z,18.40
2022-12-12T08:32:10.252Z,19.57
2022-12-12T08:34:36.892Z,15.27
2022-12-12T08:37:03.594Z,17.53
2022-12-12T08:39:31.589Z,16.03
2022-12-12T08:41:58.511Z,13.97
2022-12-12T08:44:25.209Z,12.73
2022-12-12T08:46:51.948Z,16.67
2022-12-12T08:49:18.712Z,14.57
2022-12-12T08:51:45.535Z,15.97
2022-12-12T08:54:13.052Z,15.70
2022-12-12T08:56:40.485Z,16.50
2022-12-12T08:59:07.206Z,14.90
2022-12-12T09:01:34.109Z,15.23
2022-12-12T09:04:01.604Z,13.33
2022-12-12T09:06:28.353Z,13.93
2022-12-12T09:08:56.205Z,14.50
2022-12-12T09:11:23.718Z,16.53
2022-12-12T09:13:51.887Z,14.60
2022-12-12T09:16:19.792Z,14.33
2022-12-12T09:18:49.266Z,14.80
2022-12-12T09:21:16.979Z,14.73
2022-12-12T09:23:43.653Z,14.40
2022-12-12T09:26:10.899Z,14.50
2022-12-12T09:28:37.721Z,13.67
2022-12-12T09:31:06.828Z,14.30
2022-12-12T09:33:35.128Z,19.57
2022-12-12T09:36:04.365Z,18.03
2022-12-12T09:38:31.605Z,20.50
2022-12-12T09:41:00.555Z,18.97
2022-12-12T09:43:33.214Z,19.53
2022-12-12T09:46:03.021Z,18.80
2022-12-12T09:48:41.375Z,16.17
2022-12-12T09:51:09.624Z,18.43
2022-12-12T09:53:37.396Z,17.37
2022-12-12T09:56:29.896Z,17.57
2022-12-12T09:59:05.445Z,17.90
2022-12-12T10:01:44.575Z,22.43
2022-12-12T10:04:38.167Z,20.40
2022-12-12T10:07:25.959Z,18.63
2022-12-12T10:10:23.172Z,19.60
2022-12-12T10:12:51.433Z,18.73
2022-12-12T10:15:29.668Z,19.27
2022-12-12T10:18:00.206Z,22.50
2022-12-12T10:20:32.204Z,18.43
2022-12-12T10:23:20.659Z,19.13
2022-12-12T10:25:56.847Z,17.53
2022-12-12T10:28:26.039Z,15.83
2022-12-12T10:31:30.438Z,16.63
2022-12-12T10:34:12.483Z,16.43
2022-12-12T10:37:10.660Z,16.17
2022-12-12T10:39:56.128Z,12.93
2022-12-12T10:42:57.871Z,14.33
2022-12-12T10:45:30.607Z,14.57
2022-12-12T10:47:57.409Z,14.13
2022-12-12T10:50:26.765Z,15.73
2022-12-12T10:52:54.001Z,15.20
2022-12-12T10:55:49.576Z,15.37
2022-12-12T10:58:19.878Z,18.63
2022-12-12T11:00:48.981Z,14.03
2022-12-12T11:03:36.073Z,16.57
2022-12-12T11:06:15.378Z,15.80
2022-12-12T11:08:53.843Z,14.87
2022-12-12T11:11:24.020Z,16.27
2022-12-12T11:14:03.105Z,12.93
2022-12-12T11:16:41.101Z,16.07
2022-12-12T11:19:20.127Z,14.53
2022-12-12T11:21:47.827Z,14.87
2022-12-12T11:24:29.508Z,14.63
2022-12-12T11:26:59.403Z,14.30
2022-12-12T11:29:46.645Z,13.27
2022-12-12T11:32:20.735Z,19.73
2022-12-12T11:34:51.468Z,15.33
2022-12-12T11:37:21.822Z,13.77
2022-12-12T11:39:53.183Z,12.50
2022-12-12T11:42:31.087Z,14.53
2022-12-12T11:45:04.912Z,12.27
2022-12-12T11:47:40.675Z,14.30
2022-12-12T11:50:29.051Z,14.27
2022-12-12T11:53:03.198Z,13.43
2022-12-12T11:55:57.643Z,12.68
2022-12-12T11:58:32.467Z,12.02
2022-12-12T12:01:25.827Z,13.15
2022-12-12T12:04:11.370Z,13.50
2022-12-12T12:06:49.466Z,13.85
2022-12-12T12:09:31.935Z,11.70
2022-12-12T12:12:12.979Z,12.25
2022-12-12T12:14:52.082Z,12.73
2022-12-12T12:17:21.720Z,12.83
2022-12-12T12:20:03.342Z,10.93
2022-12-12T12:23:04.175Z,13.73
2022-12-12T12:25:45.826Z,14.33
2022-12-12T12:28:52.726Z,15.57
2022-12-12T12:31:40.898Z,14.13
2022-12-12T12:34:18.877Z,14.53
2022-12-12T12:36:45.572Z,18.13
2022-12-12T12:39:52.994Z,20.00
2022-12-12T12:42:38.249Z,18.70
2022-12-12T12:45:21.483Z,18.73
2022-12-12T12:47:55.931Z,17.20
2022-12-12T12:50:40.897Z,15.60
2022-12-12T12:53:33.504Z,34.73
2022-12-12T12:56:07.742Z,18.90
2022-12-12T12:58:42.774Z,27.33
2022-12-12T13:01:14.731Z,20.20
2022-12-12T13:03:51.948Z,15.70
2022-12-12T13:06:32.738Z,15.40
2022-12-12T13:09:20.922Z,13.50
2022-12-12T13:11:50.668Z,15.67
2022-12-12T13:14:41.435Z,15.90
2022-12-12T13:17:17.254Z,15.73
2022-12-12T13:19:47.069Z,14.47
2022-12-12T13:22:51.293Z,14.50
2022-12-12T13:25:30.977Z,18.27
2022-12-12T13:28:00.859Z,13.73
2022-12-12T13:30:45.783Z,13.90
2022-12-12T13:33:29.686Z,12.03
2022-12-12T13:36:08.729Z,11.80
2022-12-12T13:38:35.812Z,13.43
2022-12-12T13:41:06.513Z,13.00
2022-12-12T13:43:33.075Z,12.03
2022-12-12T13:46:28.628Z,12.93
2022-12-12T13:49:07.163Z,13.23
2022-12-12T13:51:44.613Z,12.57
2022-12-12T13:54:14.480Z,11.63
2022-12-12T13:56:47.834Z,12.83
2022-12-12T13:59:23.643Z,10.50
2022-12-12T14:01:52.758Z,10.33
2022-12-12T14:04:43.854Z,11.57
2022-12-12T14:07:25.377Z,10.33
2022-12-12T14:09:55.915Z,10.23
2022-12-12T14:12:32.004Z,11.00
2022-12-12T14:15:02.172Z,11.77
2022-12-12T14:17:38.393Z,12.17
2022-12-12T14:20:25.103Z,9.93
2022-12-12T14:22:51.659Z,11.73
2022-12-12T14:25:36.348Z,11.53
2022-12-12T14:28:13.574Z,12.70
2022-12-12T14:30:47.433Z,15.93
2022-12-12T14:33:17.087Z,10.77
2022-12-12T14:36:02.148Z,14.30
2022-12-12T14:39:06.957Z,10.97
2022-12-12T14:41:37.915Z,9.50
2022-12-12T14:44:36.147Z,8.53
2022-12-12T14:47:07.684Z,9.87
2022-12-12T14:49:34.491Z,10.43
2022-12-12T14:52:01.546Z,10.57
2022-12-12T14:54:28.285Z,11.47
2022-12-12T14:57:04.076Z,10.27
2022-12-12T14:59:39.813Z,9.13
2022-12-12T15:02:15.952Z,10.53
2022-12-12T15:04:47.050Z,15.63
2022-12-12T15:07:28.604Z,17.53
2022-12-12T15:09:55.312Z,21.13
2022-12-12T15:12:24.909Z,98.67
2022-12-12T15:14:55.078Z,48.57
2022-12-12T15:17:30.971Z,75.03
2022-12-12T15:20:01.647Z,97.07
2022-12-12T15:22:28.332Z,18.50
2022-12-12T15:24:57.275Z,12.03
2022-12-12T15:27:41.976Z,11.30
2022-12-12T15:30:28.878Z,10.27
2022-12-12T15:32:55.721Z,11.27
2022-12-12T15:35:23.376Z,14.23
2022-12-12T15:38:01.773Z,13.47
2022-12-12T15:40:30.818Z,25.57
2022-12-12T15:43:07.121Z,18.03
2022-12-12T15:45:37.814Z,38.80
2022-12-12T15:48:06.159Z,22.13
2022-12-12T15:50:38.556Z,12.47
2022-12-12T15:53:32.526Z,13.53
2022-12-12T15:55:59.156Z,14.30
2022-12-12T15:58:35.527Z,12.23
2022-12-12T16:01:20.844Z,15.43
2022-12-12T16:04:26.002Z,16.73
2022-12-12T16:06:52.747Z,11.23
2022-12-12T16:09:22.064Z,13.73
2022-12-12T16:11:54.385Z,12.57
2022-12-12T16:14:40.668Z,10.80
2022-12-12T16:17:20.691Z,10.43
2022-12-12T16:20:05.961Z,11.00
2022-12-12T16:22:35.783Z,11.90
2022-12-12T16:25:11.557Z,11.33
2022-12-12T16:27:38.264Z,14.77
2022-12-12T16:30:05.708Z,15.87
2022-12-12T16:32:32.387Z,16.77
2022-12-12T16:34:59.081Z,22.90
2022-12-12T16:37:25.750Z,20.90
2022-12-12T16:39:52.631Z,17.33
2022-12-12T16:42:20.939Z,19.67
2022-12-12T16:44:47.758Z,20.37
2022-12-12T16:47:19.671Z,19.47
2022-12-12T16:49:46.955Z,31.60
2022-12-12T16:52:18.652Z,15.53
2022-12-12T16:54:52.796Z,16.17
2022-12-12T16:57:21.505Z,18.13
2022-12-12T16:59:48.274Z,17.57
2022-12-12T17:02:20.840Z,18.07
2022-12-12T17:04:48.700Z,17.17
2022-12-12T17:07:16.262Z,15.97
2022-12-12T17:09:43.219Z,15.67
2022-12-12T17:12:11.707Z,15.27
2022-12-12T17:14:38.610Z,17.60
2022-12-12T17:17:05.473Z,17.23
2022-12-12T17:19:32.660Z,17.57
2022-12-12T17:21:59.640Z,18.53
2022-12-12T17:24:26.839Z,18.87
2022-12-12T17:26:53.760Z,19.40
2022-12-12T17:29:21.808Z,19.10
2022-12-12T17:31:48.694Z,25.87
2022-12-12T17:34:15.768Z,26.57
2022-12-12T17:36:42.616Z,26.73
2022-12-12T17:39:10.942Z,22.70
2022-12-12T17:41:37.863Z,21.50
2022-12-12T17:44:05.132Z,22.93
2022-12-12T17:46:32.431Z,23.57
2022-12-12T17:49:01.777Z,18.07
2022-12-12T17:51:29.543Z,19.60
2022-12-12T17:53:56.600Z,20.67
2022-12-12T17:56:24.748Z,23.30
2022-12-12T17:58:52.435Z,21.07
2022-12-12T18:01:31.607Z,22.87
2022-12-12T18:03:59.821Z,20.60
2022-12-12T18:06:29.225Z,21.03
2022-12-12T18:08:56.873Z,22.93
2022-12-12T18:11:27.376Z,23.80
2022-12-12T18:13:57.730Z,22.03
2022-12-12T18:16:27.143Z,22.30
2022-12-12T18:18:56.108Z,24.10
2022-12-12T18:21:59.235Z,21.83
2022-12-12T18:24:13.812Z,30.00
2022-12-12T18:26:41.056Z,23.17
2022-12-12T18:29:08.758Z,25.63
2022-12-12T18:31:35.726Z,25.80
2022-12-12T18:34:03.459Z,23.70
2022-12-12T18:36:31.356Z,28.07
2022-12-12T18:39:00.332Z,24.17
2022-12-12T18:41:28.382Z,26.13
2022-12-12T18:43:55.619Z,27.83
2022-12-12T18:46:24.673Z,26.80
2022-12-12T18:48:51.484Z,29.37
2022-12-12T18:51:23.756Z,26.20
2022-12-12T18:53:52.252Z,29.13
2022-12-12T18:56:24.491Z,29.87
2022-12-12T18:58:55.559Z,29.80
2022-12-12T19:01:24.946Z,26.90
2022-12-12T19:03:53.403Z,25.03
2022-12-12T19:06:22.668Z,25.43
2022-12-12T19:08:49.422Z,29.63
2022-12-12T19:11:16.763Z,33.33
2022-12-12T19:13:43.506Z,32.13
2022-12-12T19:16:13.323Z,33.20
2022-12-12T19:18:41.349Z,32.37
2022-12-12T19:21:13.570Z,28.53
2022-12-12T19:23:41.142Z,29.97
2022-12-12T19:26:10.963Z,27.73
2022-12-12T19:28:38.192Z,26.40
2022-12-12T19:31:10.516Z,33.37
2022-12-12T19:33:37.641Z,28.53
2022-12-12T19:36:16.871Z,26.40
2022-12-12T19:38:44.611Z,30.23
2022-12-12T19:41:14.092Z,28.10
2022-12-12T19:43:42.350Z,28.30
2022-12-12T19:46:12.147Z,26.53
2022-12-12T19:48:39.919Z,22.47
2022-12-12T19:51:18.479Z,24.10
2022-12-12T19:53:47.624Z,27.77
2022-12-12T19:56:17.024Z,25.70
2022-12-12T19:58:44.283Z,27.03
2022-12-12T20:01:18.157Z,24.97
2022-12-12T20:03:53.768Z,22.10
2022-12-12T20:06:20.933Z,26.47
2022-12-12T20:08:48.119Z,27.17
2022-12-12T20:11:21.128Z,50.97
2022-12-12T20:13:54.583Z,46.43
2022-12-12T20:16:24.695Z,33.50
2022-12-12T20:18:52.455Z,34.53
2022-12-12T20:21:59.140Z,41.10
2022-12-12T20:24:12.557Z,35.37
2022-12-12T20:26:40.712Z,29.10
2022-12-12T20:29:08.940Z,37.17
2022-12-12T20:31:38.017Z,31.40
2022-12-12T20:34:04.918Z,30.13
2022-12-12T20:36:34.221Z,26.53
2022-12-12T20:39:03.823Z,30.20
2022-12-12T20:41:34.473Z,27.30
2022-12-12T20:44:01.211Z,30.23
2022-12-12T20:46:33.820Z,31.30
2022-12-12T20:49:03.528Z,26.17
2022-12-12T20:51:54.662Z,30.70
2022-12-12T20:54:19.818Z,25.13
2022-12-12T20:56:46.782Z,26.63
2022-12-12T20:59:14.468Z,25.23
2022-12-12T21:01:41.433Z,21.20
2022-12-12T21:04:09.406Z,26.57
2022-12-12T21:06:39.738Z,25.93
2022-12-12T21:09:09.644Z,20.33
2022-12-12T21:11:38.042Z,24.13
2022-12-12T21:14:06.102Z,26.17
2022-12-12T21:16:36.015Z,22.17
2022-12-12T21:19:06.347Z,23.67
2022-12-12T21:21:33.237Z,23.57
2022-12-12T21:24:00.526Z,29.00
2022-12-12T21:26:29.633Z,25.60
2022-12-12T21:28:57.723Z,23.30
2022-12-12T21:31:27.993Z,24.83
2022-12-12T21:33:55.343Z,24.77
2022-12-12T21:36:23.520Z,26.33
2022-12-12T21:38:51.948Z,28.20
2022-12-12T21:41:21.551Z,23.27
2022-12-12T21:43:49.389Z,22.83
2022-12-12T21:46:22.534Z,25.37
2022-12-12T21:49:08.491Z,33.97
2022-12-12T21:51:35.745Z,26.47
2022-12-12T21:54:07.047Z,27.00
2022-12-12T21:56:34.074Z,24.70
2022-12-12T21:59:00.781Z,28.10
2022-12-12T22:01:27.802Z,26.90
2022-12-12T22:03:55.189Z,30.33
2022-12-12T22:06:25.727Z,24.30
2022-12-12T22:08:55.162Z,34.50
2022-12-12T22:11:39.751Z,34.77
2022-12-12T22:14:09.040Z,32.57
2022-12-12T22:16:35.804Z,37.57
2022-12-12T22:19:06.471Z,34.63
2022-12-12T22:21:34.299Z,66.40
2022-12-12T22:24:01.326Z,45.97
2022-12-12T22:26:34.362Z,30.00
2022-12-12T22:29:04.498Z,28.33
2022-12-12T22:31:35.340Z,28.23
2022-12-12T22:34:04.692Z,28.40
2022-12-12T22:36:34.895Z,27.47
2022-12-12T22:39:01.940Z,25.50
2022-12-12T22:41:29.475Z,27.93
2022-12-12T22:43:58.239Z,29.97
2022-12-12T22:46:26.308Z,26.23
2022-12-12T22:48:54.737Z,27.37
2022-12-12T22:51:24.832Z,27.40
2022-12-12T22:53:51.931Z,27.97
2022-12-12T22:56:18.626Z,28.47
2022-12-12T22:58:45.391Z,29.13
2022-12-12T23:01:18.384Z,25.63
2022-12-12T23:03:46.225Z,30.27
2022-12-12T23:06:22.996Z,26.67
2022-12-12T23:08:55.587Z,27.77
2022-12-12T23:11:23.518Z,26.43
2022-12-12T23:13:53.000Z,29.33
2022-12-12T23:16:21.973Z,26.57
2022-12-12T23:18:48.664Z,21.53
2022-12-12T23:21:18.345Z,28.10
2022-12-12T23:23:46.013Z,25.63
2022-12-12T23:26:15.959Z,27.80
2022-12-12T23:28:44.007Z,25.10
2022-12-12T23:31:18.696Z,27.37
2022-12-12T23:33:46.603Z,25.50
2022-12-12T23:36:15.429Z,26.90
2022-12-12T23:38:43.573Z,25.27
2022-12-12T23:41:12.992Z,28.00
2022-12-12T23:43:40.632Z,24.60
2022-12-12T23:46:28.028Z,27.03
2022-12-12T23:48:59.218Z,29.80
2022-12-12T23:51:28.310Z,25.47
2022-12-12T23:54:00.722Z,26.97
2022-12-12T23:56:28.236Z,25.37
2022-12-12T23:58:56.775Z,24.23
